Time;durP1;ratioP1;P1;durP2;ratioP2;P2;SDS_P1;SDS_P2;PMS_P1;PMS_P2;Temp;Humidity;BMP_temperature;BMP_pressure;BME280_temperature;BME280_humidity;BME280_pressure;Samples;Min_cycle;Max_cycle;Signal;HPM_P1;HPM_P2
2023/09/08 00:01:17;;;;;;;9.02;7.40;;;;;;;20.51;79.65;95144.03;5049053;28;20694;-44
2023/09/08 00:03:44;;;;;;;8.30;7.45;;;;;;;20.48;80.15;95147.00;5048995;28;20203;-43
2023/09/08 00:06:11;;;;;;;7.90;6.97;;;;;;;20.38;80.16;95136.09;5049013;28;20668;-43
2023/09/08 00:08:38;;;;;;;10.90;7.53;;;;;;;20.34;80.62;95144.47;5048909;28;20195;-44
2023/09/08 00:11:07;;;;;;;8.68;7.72;;;;;;;20.35;81.09;95146.06;5049256;28;20195;-45
2023/09/08 00:13:35;;;;;;;8.65;7.80;;;;;;;20.29;81.14;95138.03;5048544;28;20257;-45
2023/09/08 00:16:01;;;;;;;9.55;7.50;;;;;;;20.27;80.59;95127.00;5048876;28;20198;-42
2023/09/08 00:18:28;;;;;;;8.52;7.50;;;;;;;20.25;80.21;95144.59;5048585;28;20203;-42
2023/09/08 00:20:55;;;;;;;9.27;6.57;;;;;;;20.23;78.82;95135.38;5048856;28;20195;-44
2023/09/08 00:23:22;;;;;;;7.70;6.95;;;;;;;20.20;78.00;95143.53;5048651;28;20183;-43
2023/09/08 00:25:50;;;;;;;7.95;7.15;;;;;;;20.22;77.70;95131.97;5048746;28;20227;-42
2023/09/08 00:28:17;;;;;;;6.68;5.97;;;;;;;20.18;75.16;95125.53;5048582;28;20191;-45
2023/09/08 00:30:45;;;;;;;9.73;6.85;;;;;;;20.14;75.52;95116.50;5049270;28;20219;-43
2023/09/08 00:33:13;;;;;;;11.75;7.13;;;;;;;20.14;74.72;95126.09;5052622;28;20647;-46
2023/09/08 00:35:40;;;;;;;6.90;6.20;;;;;;;20.13;73.87;95125.28;5052256;28;20203;-44
2023/09/08 00:38:07;;;;;;;7.40;5.30;;;;;;;20.15;73.87;95125.09;5052427;28;20655;-42
2023/09/08 00:43:45;;;;;;;12.38;6.18;;;;;;;20.12;73.23;95123.69;4970150;28;20241;-43
2023/09/08 00:46:14;;;;;;;6.38;4.90;;;;;;;20.10;72.77;95128.25;4971138;28;20713;-43
2023/09/08 00:48:40;;;;;;;6.75;5.20;;;;;;;20.06;72.52;95127.03;4970801;28;20249;-42
2023/09/08 00:51:09;;;;;;;8.40;5.47;;;;;;;20.09;72.57;95121.47;4971287;28;20737;-44
2023/09/08 00:53:36;;;;;;;7.33;5.73;;;;;;;20.14;72.40;95124.28;4970638;28;20672;-43
2023/09/08 00:56:03;;;;;;;6.28;5.22;;;;;;;20.15;72.63;95119.91;4971107;28;20190;-42
2023/09/08 00:58:31;;;;;;;7.10;5.47;;;;;;;20.13;71.73;95114.91;4970844;28;20201;-44
2023/09/08 01:00:58;;;;;;;7.35;5.05;;;;;;;20.13;71.55;95108.91;4971019;28;20256;-42
2023/09/08 01:03:26;;;;;;;6.22;5.25;;;;;;;20.08;71.66;95117.25;4971040;28;20293;-42
2023/09/08 01:05:53;;;;;;;8.05;5.13;;;;;;;20.13;72.00;95121.91;4970849;28;20209;-45
2023/09/08 01:08:21;;;;;;;9.02;5.20;;;;;;;20.12;72.39;95126.28;4970965;28;20581;-44
2023/09/08 01:10:48;;;;;;;10.35;5.65;;;;;;;20.13;72.52;95124.50;4970617;28;20190;-43
2023/09/08 01:13:14;;;;;;;6.05;5.40;;;;;;;20.12;72.10;95112.47;4970752;28;20209;-42
2023/09/08 01:15:41;;;;;;;5.38;4.88;;;;;;;20.11;72.30;95124.66;4970581;28;20669;-43
2023/09/08 01:18:08;;;;;;;8.68;4.68;;;;;;;20.09;71.78;95115.47;4970910;28;20202;-43
2023/09/08 01:21:07;;;;;;;6.05;4.45;;;;;;;20.12;71.98;95121.09;5018845;28;20709;-45
2023/09/08 01:23:57;;;;;;;8.15;5.43;;;;;;;20.16;71.85;95119.72;5034700;28;20253;-42
2023/09/08 01:26:31;;;;;;;8.57;4.82;;;;;;;20.14;72.16;95120.91;5051566;28;20214;-42
2023/09/08 01:29:00;;;;;;;8.53;4.97;;;;;;;20.14;72.09;95113.13;5051259;28;20202;-43
2023/09/08 01:31:27;;;;;;;12.02;6.95;;;;;;;20.15;72.36;95112.91;5051413;28;20195;-43
2023/09/08 01:33:54;;;;;;;8.23;5.03;;;;;;;20.16;72.23;95111.13;5051311;28;20249;-43
2023/09/08 01:36:20;;;;;;;10.52;5.43;;;;;;;20.16;72.60;95106.72;5051903;28;20265;-45
2023/09/08 01:38:47;;;;;;;18.73;6.60;;;;;;;19.74;72.64;95034.88;5052249;28;20197;-44
2023/09/08 01:41:14;;;;;;;7.13;5.20;;;;;;;20.16;73.11;95106.72;5051227;28;20524;-42
2023/09/08 01:43:42;;;;;;;11.55;5.00;;;;;;;20.15;73.65;95099.94;5051181;28;20835;-44
2023/09/08 01:46:09;;;;;;;10.70;4.50;;;;;;;20.09;73.81;95098.09;5051233;28;20222;-42
2023/09/08 01:48:36;;;;;;;4.80;4.30;;;;;;;20.06;74.11;95095.84;5050940;28;20183;-43
2023/09/08 01:51:02;;;;;;;8.23;4.57;;;;;;;20.00;74.36;95094.81;5051090;28;20195;-43
2023/09/08 01:53:29;;;;;;;6.20;4.60;;;;;;;20.00;74.53;95105.19;5051328;28;20198;-44
2023/09/08 01:55:56;;;;;;;6.13;4.78;;;;;;;20.04;74.49;95097.84;5050703;28;20179;-43
2023/09/08 02:01:39;;;;;;;6.07;4.78;;;;;;;19.96;75.46;95103.16;5000663;28;20223;-45
2023/09/08 02:04:06;;;;;;;6.35;4.60;;;;;;;19.70;76.17;95068.16;5050749;28;20183;-43
2023/09/08 02:06:33;;;;;;;5.90;4.73;;;;;;;19.86;76.80;95094.88;5050721;28;20218;-44
2023/09/08 02:09:00;;;;;;;8.15;4.68;;;;;;;19.86;77.28;95094.88;5050634;28;20937;-42
2023/09/08 02:11:27;;;;;;;8.05;4.43;;;;;;;19.81;77.70;95098.00;5050527;28;20190;-42
2023/09/08 02:13:53;;;;;;;15.75;5.20;;;;;;;19.70;78.76;95104.50;5050648;28;20195;-47
2023/09/08 02:16:20;;;;;;;7.07;4.82;;;;;;;19.69;78.66;95105.50;5050960;28;20198;-46
2023/09/08 02:18:48;;;;;;;4.83;4.33;;;;;;;19.36;78.88;95044.63;5050302;28;20609;-42
2023/09/08 02:21:15;;;;;;;5.55;4.47;;;;;;;19.69;79.10;95095.13;5050454;28;20201;-44
2023/09/08 02:23:42;;;;;;;12.55;5.53;;;;;;;19.49;79.68;95065.53;5050726;28;20187;-44
2023/09/08 02:26:09;;;;;;;8.98;5.22;;;;;;;19.63;80.25;95090.66;5050682;28;20187;-43
2023/09/08 02:28:35;;;;;;;6.37;5.63;;;;;;;19.60;80.71;95090.97;5049909;28;20199;-44
2023/09/08 02:31:02;;;;;;;5.77;5.13;;;;;;;19.59;81.11;95085.97;5050170;28;20312;-44
2023/09/08 02:33:29;;;;;;;6.33;4.67;;;;;;;19.57;81.52;95087.97;5050579;28;20183;-44
2023/09/08 02:36:03;;;;;;;8.05;5.63;;;;;;;19.53;81.86;95085.72;5050152;28;20219;-43
2023/09/08 02:38:29;;;;;;;8.93;5.30;;;;;;;19.49;82.20;95076.69;5050265;28;20191;-45
2023/09/08 02:40:56;;;;;;;8.00;5.38;;;;;;;19.50;82.65;95085.28;5050249;28;20183;-45
2023/09/08 02:43:23;;;;;;;6.47;5.80;;;;;;;19.46;82.97;95071.06;5050759;28;20194;-45
2023/09/08 02:45:50;;;;;;;12.43;5.20;;;;;;;19.44;83.72;95075.66;5050166;28;20187;-43
2023/09/08 02:48:17;;;;;;;7.93;5.97;;;;;;;19.39;84.76;95083.19;5050230;28;20729;-43
2023/09/08 02:50:44;;;;;;;10.77;6.35;;;;;;;19.35;85.81;95082.75;5049782;28;20191;-45
2023/09/08 02:53:13;;;;;;;10.93;6.70;;;;;;;19.34;85.91;95086.28;5049398;28;20198;-43
2023/09/08 02:55:40;;;;;;;8.03;6.00;;;;;;;19.28;86.52;95085.25;5049693;28;20199;-43
2023/09/08 02:58:06;;;;;;;9.60;6.40;;;;;;;19.24;87.57;95085.78;5050143;28;20194;-42
2023/09/08 03:00:33;;;;;;;7.50;6.67;;;;;;;19.21;87.63;95081.78;5049796;28;20198;-45
2023/09/08 03:03:00;;;;;;;11.33;6.53;;;;;;;19.15;88.73;95084.28;5049754;28;20191;-44
2023/09/08 03:05:27;;;;;;;9.17;6.47;;;;;;;19.14;88.51;95077.50;5049684;28;20568;-45
2023/09/08 03:07:53;;;;;;;9.57;6.80;;;;;;;19.10;89.17;95081.44;5049656;28;20222;-42
2023/09/08 03:10:22;;;;;;;7.43;6.37;;;;;;;19.11;89.73;95080.44;5049922;28;20198;-45
2023/09/08 03:12:48;;;;;;;8.40;5.87;;;;;;;19.08;89.65;95079.00;5049462;28;20191;-44
2023/09/08 03:15:15;;;;;;;12.00;7.03;;;;;;;19.02;90.62;95075.34;5049626;28;20190;-43
2023/09/08 03:17:42;;;;;;;8.90;6.90;;;;;;;19.03;90.64;95079.53;5049177;28;20202;-43
2023/09/08 03:20:13;;;;;;;10.70;7.80;;;;;;;18.99;91.00;95078.28;5049683;28;20217;-43
2023/09/08 03:22:40;;;;;;;9.93;6.83;;;;;;;18.94;91.19;95074.66;5049610;28;20252;-43
2023/09/08 03:25:07;;;;;;;12.10;8.00;;;;;;;18.90;91.78;95074.19;5049659;28;20183;-43
2023/09/08 03:27:36;;;;;;;13.17;7.83;;;;;;;18.85;92.56;95079.13;5049165;28;20229;-42
2023/09/08 03:30:04;;;;;;;8.57;7.63;;;;;;;18.82;92.43;95083.84;5049178;28;20295;-42
2023/09/08 03:32:31;;;;;;;10.93;8.07;;;;;;;18.77;92.43;95080.00;5049240;28;20202;-43
2023/09/08 03:34:58;;;;;;;9.57;6.20;;;;;;;18.80;92.75;95092.59;5049402;28;20704;-45
2023/09/08 03:37:26;;;;;;;8.83;7.20;;;;;;;18.73;92.86;95083.94;5049472;28;20194;-45
2023/09/08 03:39:52;;;;;;;11.90;7.80;;;;;;;18.73;93.06;95091.69;5049581;28;20195;-43
2023/09/08 03:42:19;;;;;;;10.50;8.33;;;;;;;18.70;93.47;95093.88;5049609;28;20187;-43
2023/09/08 03:44:47;;;;;;;9.37;6.90;;;;;;;18.67;93.39;95089.00;5049008;28;20194;-43
2023/09/08 03:47:14;;;;;;;11.63;7.20;;;;;;;18.67;93.71;95100.16;5049406;28;20249;-43
2023/09/08 03:49:41;;;;;;;8.73;7.10;;;;;;;18.67;93.58;95101.97;5049035;28;20195;-44
2023/09/08 03:52:08;;;;;;;13.73;6.77;;;;;;;18.65;94.53;95094.38;5049239;28;20187;-43
2023/09/08 03:54:34;;;;;;;8.93;7.10;;;;;;;18.61;94.98;95094.88;5048786;28;20183;-44
2023/09/08 03:57:01;;;;;;;12.53;8.10;;;;;;;18.44;94.97;95081.31;5049237;28;20304;-44
2023/09/08 03:59:28;;;;;;;13.43;10.17;;;;;;;18.52;95.22;95101.91;5048845;28;20233;-43
2023/09/08 04:01:56;;;;;;;11.93;7.43;;;;;;;18.49;95.30;95091.94;5048882;28;20198;-43
2023/09/08 04:04:23;;;;;;;10.53;7.83;;;;;;;18.50;95.31;95096.94;5049239;28;20662;-43
2023/09/08 04:06:49;;;;;;;13.47;8.20;;;;;;;18.53;94.95;95098.38;5052891;28;20215;-43
2023/09/08 04:09:16;;;;;;;10.57;7.07;;;;;;;18.54;95.12;95099.97;5053485;28;20253;-43
2023/09/08 04:11:43;;;;;;;15.07;8.40;;;;;;;18.50;94.84;95096.94;5053216;28;20198;-43
2023/09/08 04:14:10;;;;;;;10.73;8.03;;;;;;;18.51;94.65;95103.72;5052953;28;20260;-44
2023/09/08 04:16:36;;;;;;;9.67;7.10;;;;;;;18.51;94.31;95101.13;5052809;28;20198;-42
2023/09/08 04:19:05;;;;;;;8.53;7.63;;;;;;;18.47;94.12;95088.69;5052987;28;20264;-42
2023/09/08 04:21:31;;;;;;;9.10;7.43;;;;;;;18.53;93.76;95095.78;5052688;28;20183;-42
2023/09/08 04:23:58;;;;;;;14.27;8.10;;;;;;;18.54;93.74;95097.38;5052859;28;20248;-42
2023/09/08 04:26:25;;;;;;;9.63;7.13;;;;;;;18.55;93.81;95099.78;5052546;28;20643;-44
2023/09/08 04:28:56;;;;;;;11.10;8.47;;;;;;;18.54;93.77;95097.38;5052778;28;20230;-45
2023/09/08 04:31:25;;;;;;;10.97;7.20;;;;;;;18.52;93.63;95102.75;5052420;28;20322;-44
2023/09/08 04:33:53;;;;;;;11.10;7.07;;;;;;;18.58;93.59;95108.19;5052274;28;20197;-43
2023/09/08 04:36:21;;;;;;;14.27;8.20;;;;;;;18.60;93.85;95103.63;5052545;28;20187;-44
2023/09/08 04:38:48;;;;;;;8.57;7.27;;;;;;;18.63;93.65;95111.88;5052315;28;20198;-44
2023/09/08 04:41:14;;;;;;;8.87;7.20;;;;;;;18.70;93.38;95112.00;5052254;28;20187;-44
2023/09/08 04:43:41;;;;;;;8.60;7.10;;;;;;;18.78;92.96;95104.13;5052199;28;20293;-43
2023/09/08 04:46:08;;;;;;;10.80;7.53;;;;;;;18.84;93.27;95105.22;5052169;28;20195;-44
2023/09/08 04:48:35;;;;;;;12.97;7.93;;;;;;;18.93;92.94;95112.72;5052205;28;20237;-43
2023/09/08 04:51:02;;;;;;;11.47;7.87;;;;;;;19.01;92.67;95106.66;5052046;28;20183;-43
2023/09/08 04:53:30;;;;;;;8.90;7.33;;;;;;;19.03;92.69;95104.66;5052181;28;20202;-44
2023/09/08 04:55:57;;;;;;;9.60;7.60;;;;;;;19.16;92.35;95107.44;5052109;28;20190;-43
2023/09/08 04:58:23;;;;;;;15.57;7.30;;;;;;;19.19;91.89;95098.50;5052079;28;20195;-46
2023/09/08 05:00:51;;;;;;;15.13;7.03;;;;;;;19.33;91.80;95109.84;5052034;28;20222;-43
2023/09/08 05:03:17;;;;;;;9.97;7.43;;;;;;;19.43;91.39;95108.56;5051789;28;20202;-44
2023/09/08 05:05:45;;;;;;;8.00;7.17;;;;;;;19.60;91.11;95110.94;5051952;28;20191;-43
2023/09/08 05:08:12;;;;;;;12.73;7.10;;;;;;;19.85;90.22;95116.63;5051873;28;20226;-43
2023/09/08 05:10:40;;;;;;;17.10;6.87;;;;;;;20.12;88.97;95107.28;5052404;28;20191;-44
2023/09/08 05:13:07;;;;;;;9.57;6.80;;;;;;;20.46;87.34;95112.56;5051583;28;20198;-44
2023/09/08 05:15:34;;;;;;;9.45;6.65;;;;;;;20.80;85.95;95109.22;5051772;28;20697;-42
2023/09/08 05:18:00;;;;;;;7.88;6.28;;;;;;;21.16;83.63;95110.06;5050733;28;20210;-43
2023/09/08 05:20:27;;;;;;;9.60;6.35;;;;;;;21.54;81.78;95119.06;5051664;28;20183;-43
2023/09/08 05:22:54;;;;;;;8.77;6.05;;;;;;;21.89;79.21;95118.13;5051762;28;20265;-44
2023/09/08 05:25:21;;;;;;;9.02;6.00;;;;;;;22.12;77.22;95089.97;5051857;28;20253;-45
2023/09/08 05:27:49;;;;;;;10.55;5.68;;;;;;;22.64;74.98;95126.66;5051446;28;20727;-45
2023/09/08 05:30:16;;;;;;;12.20;5.80;;;;;;;22.95;72.20;95118.22;5051744;28;20231;-42
2023/09/08 05:32:42;;;;;;;8.38;5.70;;;;;;;23.24;70.55;95109.13;5051670;28;20202;-43
2023/09/08 05:35:09;;;;;;;9.07;4.93;;;;;;;23.14;69.34;95054.72;5051028;28;20663;-43
2023/09/08 05:37:36;;;;;;;8.98;5.72;;;;;;;23.92;67.55;95119.06;5052098;28;20574;-43
2023/09/08 05:40:04;;;;;;;9.00;6.18;;;;;;;24.21;65.81;95115.84;5051498;28;20252;-45
2023/09/08 05:42:31;;;;;;;12.13;5.75;;;;;;;24.47;64.71;95124.56;5051581;28;20609;-43
2023/09/08 05:44:59;;;;;;;7.18;5.55;;;;;;;24.75;63.30;95117.06;5051061;28;20202;-45
2023/09/08 05:47:26;;;;;;;12.25;4.97;;;;;;;24.99;62.61;95118.03;5051443;28;20218;-46
2023/09/08 05:49:52;;;;;;;9.32;4.93;;;;;;;25.15;61.33;95116.72;5050882;28;20187;-43
2023/09/08 05:52:19;;;;;;;6.30;4.43;;;;;;;25.35;60.56;95128.78;5051435;28;20229;-44
2023/09/08 05:54:46;;;;;;;7.78;4.50;;;;;;;25.34;59.10;95132.41;5050964;28;20265;-44
2023/09/08 05:57:13;;;;;;;5.15;4.40;;;;;;;25.33;58.68;95125.56;5051208;28;20556;-44
2023/09/08 05:59:39;;;;;;;9.38;4.72;;;;;;;25.26;57.76;95125.66;5051182;28;20195;-46
2023/09/08 06:02:07;;;;;;;8.40;4.80;;;;;;;25.30;58.29;95134.66;5051383;28;20187;-45
2023/09/08 06:04:34;;;;;;;6.10;4.38;;;;;;;25.32;56.37;95126.59;5050981;28;20187;-44
2023/09/08 06:07:01;;;;;;;9.20;4.47;;;;;;;25.15;55.75;95121.94;5050773;28;20202;-46
2023/09/08 06:09:28;;;;;;;6.88;4.70;;;;;;;25.18;55.53;95133.81;5050671;28;20242;-44
2023/09/08 06:11:54;;;;;;;6.50;4.70;;;;;;;25.15;56.33;95129.00;5050487;28;20202;-44
2023/09/08 06:14:21;;;;;;;6.10;4.05;;;;;;;25.20;55.71;95127.31;5050647;28;20187;-44
2023/09/08 06:16:48;;;;;;;7.55;4.55;;;;;;;25.22;55.28;95114.03;5050686;28;20191;-43
2023/09/08 06:19:16;;;;;;;7.65;4.18;;;;;;;25.46;54.84;95136.69;5050519;28;20667;-43
2023/09/08 06:21:43;;;;;;;6.82;4.68;;;;;;;25.51;54.64;95138.66;5050294;28;20241;-43
2023/09/08 06:24:10;;;;;;;7.82;4.10;;;;;;;25.18;54.13;95084.06;5050342;28;20224;-43
2023/09/08 06:26:38;;;;;;;7.32;5.30;;;;;;;25.76;54.31;95139.38;5050449;28;20198;-43
2023/09/08 06:29:07;;;;;;;6.07;4.50;;;;;;;26.00;54.18;95142.13;5049104;28;20230;-44
2023/09/08 06:31:34;;;;;;;5.43;4.45;;;;;;;26.17;52.17;95148.34;5050482;28;20198;-44
2023/09/08 06:34:03;;;;;;;8.93;4.32;;;;;;;26.26;51.14;95146.19;5050493;28;20190;-43
2023/09/08 06:36:31;;;;;;;8.30;4.05;;;;;;;26.36;50.27;95150.88;5050078;28;20291;-45
2023/09/08 06:38:58;;;;;;;5.43;4.07;;;;;;;26.40;49.82;95152.03;5050309;28;20191;-45
2023/09/08 06:41:27;;;;;;;7.47;3.78;;;;;;;26.46;49.73;95151.16;5050470;28;20240;-43
2023/09/08 06:43:53;;;;;;;5.85;3.30;;;;;;;26.66;49.00;95162.13;5050110;28;20195;-46
2023/09/08 06:46:20;;;;;;;6.15;3.85;;;;;;;26.68;48.51;95154.81;5050159;28;20217;-43
2023/09/08 06:48:47;;;;;;;10.07;4.05;;;;;;;26.71;47.97;95154.38;5049690;28;20717;-45
2023/09/08 06:51:14;;;;;;;3.78;3.08;;;;;;;26.91;48.11;95159.31;5049923;28;20556;-45
2023/09/08 06:53:44;;;;;;;4.97;3.63;;;;;;;27.21;47.35;95161.03;5049799;28;20643;-44
2023/09/08 06:56:11;;;;;;;6.40;3.75;;;;;;;27.48;46.13;95156.88;5050147;28;20202;-44
2023/09/08 06:58:37;;;;;;;4.30;3.42;;;;;;;27.70;44.68;95167.56;5049748;28;20199;-42
2023/09/08 07:01:04;;;;;;;6.20;3.63;;;;;;;27.79;44.80;95165.41;5049622;28;20809;-43
2023/09/08 07:03:36;;;;;;;6.43;3.58;;;;;;;27.89;43.52;95155.09;5049508;28;20278;-44
2023/09/08 07:06:03;;;;;;;5.00;3.33;;;;;;;27.92;43.96;95148.56;5049733;28;20619;-44
2023/09/08 07:08:30;;;;;;;11.13;3.67;;;;;;;27.90;42.78;95161.94;5049718;28;20605;-45
2023/09/08 07:10:58;;;;;;;7.45;3.30;;;;;;;27.89;43.41;95162.97;5049643;28;20198;-44
2023/09/08 07:13:25;;;;;;;3.70;3.40;;;;;;;27.90;43.05;95161.16;5049097;28;20667;-43
2023/09/08 07:15:52;;;;;;;3.75;3.17;;;;;;;27.89;42.62;95149.84;5049656;28;20183;-43
2023/09/08 07:18:18;;;;;;;5.20;3.47;;;;;;;28.14;42.83;95162.63;5049263;28;20276;-45
2023/09/08 07:20:47;;;;;;;5.78;3.63;;;;;;;28.30;42.84;95165.53;5049394;28;20658;-45
2023/09/08 07:23:14;;;;;;;5.32;3.28;;;;;;;28.48;42.40;95155.63;5049326;28;20213;-44
2023/09/08 07:25:41;;;;;;;5.50;3.75;;;;;;;28.70;42.42;95162.81;5049364;28;20705;-45
2023/09/08 07:28:09;;;;;;;3.63;3.33;;;;;;;28.83;40.41;95154.59;5049188;28;20693;-45
2023/09/08 07:30:36;;;;;;;5.18;3.50;;;;;;;28.79;40.33;95160.56;5048871;28;20227;-45
2023/09/08 07:33:04;;;;;;;5.65;3.63;;;;;;;28.71;40.37;95154.69;5049186;28;20566;-44
2023/09/08 07:35:31;;;;;;;5.50;3.47;;;;;;;28.64;40.49;95156.69;5049206;28;20292;-44
2023/09/08 07:37:58;;;;;;;6.35;3.30;;;;;;;28.50;41.19;95152.78;5049183;28;20555;-44
2023/09/08 07:40:24;;;;;;;6.05;3.17;;;;;;;28.54;40.40;95156.53;5048766;28;20359;-44
2023/09/08 07:42:51;;;;;;;3.60;3.17;;;;;;;28.16;41.14;95129.03;5049195;28;20194;-44
2023/09/08 07:45:19;;;;;;;4.15;3.45;;;;;;;28.46;41.18;95147.19;5048650;28;20217;-44
2023/09/08 07:47:46;;;;;;;5.75;3.33;;;;;;;28.55;41.14;95165.22;5049058;28;20666;-45
2023/09/08 07:50:21;;;;;;;7.22;3.17;;;;;;;28.40;40.86;95137.59;5048901;28;20662;-44
2023/09/08 07:52:49;;;;;;;6.03;3.28;;;;;;;28.57;40.52;95145.50;5049075;28;20237;-44
2023/09/08 07:55:16;;;;;;;7.63;3.00;;;;;;;28.61;40.62;95145.81;5049145;28;20195;-43
2023/09/08 07:57:43;;;;;;;6.03;3.33;;;;;;;28.77;40.76;95154.75;5049185;28;20249;-44
2023/09/08 08:00:11;;;;;;;3.50;3.20;;;;;;;28.68;40.53;95151.72;5048714;28;20183;-44
2023/09/08 08:02:44;;;;;;;4.18;3.38;;;;;;;28.66;40.54;95148.53;5048936;28;20561;-45
2023/09/08 08:05:11;;;;;;;4.90;3.22;;;;;;;28.61;40.63;95151.88;5049102;28;20210;-43
2023/09/08 08:07:39;;;;;;;5.68;3.20;;;;;;;28.44;40.53;95146.59;5049009;28;20198;-44
2023/09/08 08:10:07;;;;;;;4.82;3.40;;;;;;;28.09;41.26;95144.13;5049062;28;20225;-43
2023/09/08 08:12:37;;;;;;;6.70;3.22;;;;;;;27.97;41.74;95127.59;5048715;28;20683;-45
2023/09/08 08:15:05;;;;;;;4.45;3.30;;;;;;;28.13;42.02;95140.00;5049218;28;20191;-42
2023/09/08 08:17:32;;;;;;;4.75;2.70;;;;;;;28.09;41.54;95132.81;5048616;28;20201;-46
2023/09/08 08:20:06;;;;;;;4.43;3.13;;;;;;;27.88;41.56;95113.25;5049044;28;20658;-46
2023/09/08 08:22:34;;;;;;;4.53;3.25;;;;;;;28.08;41.06;95134.66;5048695;28;20629;-43
2023/09/08 08:25:02;;;;;;;3.75;3.22;;;;;;;28.15;41.25;95124.78;5049234;28;20202;-44
2023/09/08 08:27:30;;;;;;;7.18;3.40;;;;;;;28.18;40.74;95141.91;5048723;28;20658;-44
2023/09/08 08:29:59;;;;;;;4.85;3.20;;;;;;;28.08;41.26;95139.13;5048702;28;20765;-45
2023/09/08 08:32:26;;;;;;;4.82;3.22;;;;;;;28.11;41.52;95136.00;5048812;28;20227;-45
2023/09/08 08:34:52;;;;;;;5.97;3.67;;;;;;;28.34;41.65;95135.09;5048570;28;20187;-44
2023/09/08 08:37:20;;;;;;;4.35;3.58;;;;;;;28.51;40.99;95154.34;5048354;28;20195;-44
2023/09/08 08:39:47;;;;;;;4.80;3.38;;;;;;;28.30;41.16;95142.66;5048521;28;20194;-44
2023/09/08 08:42:14;;;;;;;4.18;2.78;;;;;;;28.22;41.06;95125.44;5048428;28;20571;-43
2023/09/08 08:44:42;;;;;;;4.80;3.33;;;;;;;28.10;41.01;95116.78;5049181;28;20229;-44
2023/09/08 08:47:10;;;;;;;3.95;2.80;;;;;;;27.70;41.92;95103.69;5048880;28;20194;-44
2023/09/08 08:49:38;;;;;;;4.93;3.22;;;;;;;27.60;42.58;95116.66;5048630;28;20207;-45
2023/09/08 08:52:08;;;;;;;3.70;3.40;;;;;;;27.40;43.15;95117.84;5049699;28;20712;-45
2023/09/08 08:54:39;;;;;;;6.50;2.90;;;;;;;27.40;42.72;95104.69;5052079;28;20264;-45
2023/09/08 08:57:07;;;;;;;5.20;2.92;;;;;;;27.57;42.15;95109.22;5051764;28;20808;-45
2023/09/08 08:59:34;;;;;;;3.50;3.20;;;;;;;27.69;42.12;95120.50;5052219;28;20198;-44
2023/09/08 09:02:03;;;;;;;5.38;3.05;;;;;;;27.61;41.89;95113.78;5051700;28;20191;-45
2023/09/08 09:04:30;;;;;;;7.32;3.33;;;;;;;27.39;42.30;95120.69;5051927;28;20223;-44
2023/09/08 09:06:57;;;;;;;4.90;3.20;;;;;;;27.17;42.62;95112.63;5052120;28;20195;-46
2023/09/08 09:09:25;;;;;;;4.28;3.08;;;;;;;27.07;43.25;95118.41;5051452;28;20226;-44
2023/09/08 09:11:53;;;;;;;5.63;3.45;;;;;;;26.82;43.24;95123.94;5052071;28;20187;-44
2023/09/08 09:14:20;;;;;;;9.65;4.20;;;;;;;26.63;43.69;95125.06;5051315;28;20191;-44
2023/09/08 09:16:47;;;;;;;3.80;3.08;;;;;;;26.72;43.30;95127.09;5052062;28;20257;-45
2023/09/08 09:19:25;;;;;;;3.90;3.50;;;;;;;26.69;43.48;95134.66;5051430;28;20202;-45
2023/09/08 09:21:54;;;;;;;5.10;3.20;;;;;;;26.59;43.08;95129.94;5051702;28;20609;-43
2023/09/08 09:24:30;;;;;;;4.85;3.65;;;;;;;26.52;43.92;95121.41;5051246;28;20281;-44
2023/09/08 09:26:58;;;;;;;5.43;4.15;;;;;;;26.71;43.79;95130.75;5051624;28;20670;-44
2023/09/08 09:29:25;;;;;;;9.65;2.83;;;;;;;26.78;42.94;95117.53;5051088;28;20230;-45
2023/09/08 09:31:53;;;;;;;6.20;3.72;;;;;;;26.59;43.60;95131.78;5051496;28;20260;-44
2023/09/08 09:34:21;;;;;;;5.13;3.55;;;;;;;26.45;43.50;95118.88;5051164;28;20249;-45
2023/09/08 09:36:49;;;;;;;5.38;3.35;;;;;;;25.90;43.74;95053.53;5051508;28;20670;-44
2023/09/08 09:39:21;;;;;;;6.53;3.40;;;;;;;26.33;44.00;95115.41;5050982;28;20230;-45
2023/09/08 09:41:48;;;;;;;6.05;4.20;;;;;;;26.31;43.88;95119.28;5051078;28;20192;-43
2023/09/08 09:44:16;;;;;;;8.65;4.03;;;;;;;26.33;43.67;95117.22;5051279;28;20197;-42
2023/09/08 09:46:46;;;;;;;6.13;3.38;;;;;;;26.28;43.96;95105.59;5051357;28;20588;-45
2023/09/08 09:49:14;;;;;;;7.00;3.85;;;;;;;26.21;44.38;95109.34;5051067;28;20215;-45
2023/09/08 09:51:42;;;;;;;5.28;3.70;;;;;;;26.33;44.65;95107.53;5051264;28;20654;-44
2023/09/08 09:54:19;;;;;;;3.85;3.55;;;;;;;26.44;44.42;95106.00;5051345;28;20214;-46
2023/09/08 09:56:48;;;;;;;4.43;3.70;;;;;;;26.39;44.94;95103.22;5051045;28;20190;-46
2023/09/08 09:59:16;;;;;;;6.32;3.20;;;;;;;26.31;44.65;95103.56;5050909;28;20492;-46
2023/09/08 10:01:46;;;;;;;3.80;3.40;;;;;;;26.10;45.07;95087.31;5050717;28;20586;-46
2023/09/08 10:04:15;;;;;;;5.00;3.53;;;;;;;26.27;45.71;95105.81;5051169;28;20189;-45
2023/09/08 10:06:44;;;;;;;4.28;3.50;;;;;;;26.34;45.36;95097.84;5050885;28;20197;-45
2023/09/08 10:09:13;;;;;;;4.78;3.97;;;;;;;26.28;45.74;95089.06;5050648;28;20715;-45
2023/09/08 10:11:45;;;;;;;3.97;3.20;;;;;;;26.21;45.60;95073.44;5051120;28;20256;-45
2023/09/08 10:14:14;;;;;;;5.38;3.97;;;;;;;26.36;45.63;95093.19;5050529;28;20238;-45
2023/09/08 10:16:45;;;;;;;7.32;3.63;;;;;;;26.23;45.88;95084.50;5051041;28;20282;-44
2023/09/08 10:19:15;;;;;;;7.07;3.53;;;;;;;26.32;45.84;95092.81;5050112;28;20199;-46
2023/09/08 10:21:46;;;;;;;9.75;3.80;;;;;;;26.44;45.54;95098.13;5050994;28;20203;-46
2023/09/08 10:24:22;;;;;;;5.32;3.35;;;;;;;26.38;45.98;95085.88;5050409;28;20223;-44
2023/09/08 10:27:03;;;;;;;3.50;3.20;;;;;;;26.35;45.97;95081.09;5050245;28;20190;-45
2023/09/08 10:29:31;;;;;;;4.43;3.75;;;;;;;26.27;46.71;95080.41;5049603;28;20321;-45
2023/09/08 10:32:00;;;;;;;4.50;3.55;;;;;;;26.27;46.51;95077.78;5050219;28;20290;-44
2023/09/08 10:34:28;;;;;;;3.83;3.53;;;;;;;26.45;46.34;95083.97;5049969;28;20195;-44
2023/09/08 10:36:55;;;;;;;4.32;3.50;;;;;;;26.54;46.02;95077.38;5050466;28;20205;-45
2023/09/08 10:39:35;;;;;;;4.30;3.67;;;;;;;26.44;46.34;95074.53;5050021;28;20191;-44
2023/09/08 10:42:21;;;;;;;4.25;3.60;;;;;;;26.23;46.46;95075.81;5050145;28;20187;-44
2023/09/08 10:44:57;;;;;;;5.07;3.13;;;;;;;26.18;47.08;95068.63;5049841;28;20544;-44
2023/09/08 10:47:26;;;;;;;8.02;3.45;;;;;;;26.07;47.21;95076.47;5050155;28;20278;-43
2023/09/08 10:49:57;;;;;;;8.82;3.33;;;;;;;25.91;47.37;95076.09;5050111;28;20222;-43
2023/09/08 10:52:24;;;;;;;6.20;3.50;;;;;;;25.81;48.44;95072.41;5049820;28;20306;-44
2023/09/08 10:54:53;;;;;;;3.72;3.17;;;;;;;25.83;48.08;95076.41;5049746;28;20187;-44
2023/09/08 10:57:22;;;;;;;5.47;3.55;;;;;;;25.91;47.83;95060.38;5049803;28;20194;-44
2023/09/08 10:59:53;;;;;;;4.97;3.38;;;;;;;25.95;47.29;95058.09;5049432;28;20208;-44
2023/09/08 11:02:43;;;;;;;7.25;3.38;;;;;;;26.18;47.06;95073.88;5049727;28;20221;-45
2023/09/08 11:05:11;;;;;;;4.22;3.38;;;;;;;26.16;47.27;95057.56;4968637;28;20200;-43
2023/09/08 11:07:38;;;;;;;4.75;3.35;;;;;;;26.24;46.68;95056.44;4968716;28;20205;-44
2023/09/08 11:10:06;;;;;;;4.22;3.10;;;;;;;26.35;46.37;95071.41;4968461;28;20232;-43
2023/09/08 11:12:33;;;;;;;5.55;3.45;;;;;;;26.27;46.78;95056.00;4968267;28;20197;-44
2023/09/08 11:15:04;;;;;;;6.20;3.40;;;;;;;26.15;47.02;95065.66;4967907;28;20296;-42
2023/09/08 11:17:31;;;;;;;5.05;3.45;;;;;;;26.10;47.31;95052.44;4968428;28;20208;-43
2023/09/08 11:19:59;;;;;;;6.32;3.22;;;;;;;26.07;47.81;95052.88;4968734;28;20752;-45
2023/09/08 11:22:27;;;;;;;4.90;3.75;;;;;;;25.99;47.34;95046.13;4968449;28;20204;-44
2023/09/08 11:24:56;;;;;;;5.95;3.80;;;;;;;25.99;47.68;95043.50;4968481;28;20193;-43
2023/09/08 11:27:23;;;;;;;6.00;3.38;;;;;;;25.97;47.80;95033.25;4968336;28;20265;-44
2023/09/08 11:29:51;;;;;;;5.05;3.65;;;;;;;26.19;47.26;95045.84;4967782;28;20269;-44
2023/09/08 11:32:18;;;;;;;5.15;3.50;;;;;;;26.39;46.81;95041.06;4968224;28;20289;-44
2023/09/08 11:34:44;;;;;;;6.82;3.63;;;;;;;26.43;46.43;95036.97;4968079;28;20201;-45
2023/09/08 11:37:15;;;;;;;4.00;3.70;;;;;;;26.38;46.84;95034.25;4968264;28;20194;-45
2023/09/08 11:39:43;;;;;;;5.68;3.45;;;;;;;26.31;47.21;95032.75;4968071;28;20245;-42
2023/09/08 11:42:12;;;;;;;5.97;3.20;;;;;;;26.30;47.69;95041.66;4999274;28;20207;-45